Time;durP1;ratioP1;P1;durP2;ratioP2;P2;SDS_P1;SDS_P2;PMS_P1;PMS_P2;Temp;Humidity;BMP_temperature;BMP_pressure;BME280_temperature;BME280_humidity;BME280_pressure;Samples;Min_cycle;Max_cycle;Signal;HPM_P1;HPM_P2
2023/06/26 00:00:17;;;;;;;;;;;;;;;21.42;59.59;99461.84;4480207;31;33622;-79
2023/06/26 00:02:47;;;;;;;;;;;;;;;21.37;59.57;99466.50;4463111;32;34202;-78
2023/06/26 00:05:15;;;;;;;;;;;;;;;21.51;59.25;99465.69;4466706;32;33900;-77
2023/06/26 00:07:44;;;;;;;;;;;;;;;21.54;59.12;99464.66;4462638;32;33937;-80
2023/06/26 00:10:13;;;;;;;;;;;;;;;21.58;58.67;99471.47;4458996;32;33204;-78
2023/06/26 00:12:41;;;;;;;;;;;;;;;21.49;59.20;99457.88;4466386;32;34808;-77
2023/06/26 00:15:12;;;;;;;;;;;;;;;21.51;58.73;99465.69;4461223;31;34561;-80
2023/06/26 00:17:40;;;;;;;;;;;;;;;21.52;58.82;99456.84;4479514;32;34454;-76
2023/06/26 00:20:10;;;;;;;;;;;;;;;21.38;59.45;99464.72;4477060;32;33312;-79
2023/06/26 00:22:40;;;;;;;;;;;;;;;21.35;59.18;99462.28;4465443;32;34190;-78
2023/06/26 00:25:09;;;;;;;;;;;;;;;21.43;58.87;99460.91;4473071;31;35100;-79
2023/06/26 00:27:38;;;;;;;;;;;;;;;21.30;59.13;99455.47;4475653;32;33340;-77
2023/06/26 00:30:07;;;;;;;;;;;;;;;21.33;59.17;99456.25;4476435;32;33204;-78
2023/06/26 00:32:38;;;;;;;;;;;;;;;21.25;58.87;99460.19;4471273;32;33621;-78
2023/06/26 00:35:06;;;;;;;;;;;;;;;21.36;58.92;99461.31;4470827;32;36411;-78
2023/06/26 00:37:35;;;;;;;;;;;;;;;21.28;58.93;99461.78;4461165;32;34086;-80
2023/06/26 00:40:05;;;;;;;;;;;;;;;21.30;58.48;99460.75;4471507;32;33303;-78
2023/06/26 00:42:38;;;;;;;;;;;;;;;21.25;58.82;99460.19;4472192;32;33716;-80
2023/06/26 00:45:07;;;;;;;;;;;;;;;21.15;59.25;99472.25;4473514;32;34864;-78
2023/06/26 00:47:35;;;;;;;;;;;;;;;21.32;58.51;99468.59;4479220;32;35058;-80
2023/06/26 00:50:06;;;;;;;;;;;;;;;21.31;58.55;99470.38;4476707;32;33187;-78
2023/06/26 00:52:35;;;;;;;;;;;;;;;21.21;58.82;99466.59;4473068;32;34494;-77
2023/06/26 00:55:03;;;;;;;;;;;;;;;21.22;58.85;99465.66;4463946;32;34059;-79
2023/06/26 00:57:32;;;;;;;;;;;;;;;21.23;58.39;99469.97;4465893;32;33825;-78
2023/06/26 01:00:01;;;;;;;;;;;;;;;21.25;58.13;99460.19;4461004;32;33226;-79
2023/06/26 01:02:33;;;;;;;;;;;;;;;21.28;58.19;99453.88;4473177;32;33018;-79
2023/06/26 01:05:06;;;;;;;;;;;;;;;21.22;58.07;99454.28;4464244;32;34190;-80
2023/06/26 01:07:37;;;;;;;;;;;;;;;21.13;58.63;99453.03;4468991;32;34227;-79
2023/06/26 01:10:06;;;;;;;;;;;;;;;21.18;58.10;99450.97;4460489;32;32582;-78
2023/06/26 01:12:35;;;;;;;;;;;;;;;21.19;58.05;99454.44;4460358;32;34836;-78
2023/06/26 01:15:04;;;;;;;;;;;;;;;21.01;58.57;99438.78;4464128;32;34275;-78
2023/06/26 01:17:33;;;;;;;;;;;;;;;21.13;58.65;99437.19;4477749;32;34167;-80
2023/06/26 01:20:06;;;;;;;;;;;;;;;20.91;59.60;99431.53;4481986;32;33313;-79
2023/06/26 01:22:44;;;;;;;;;;;;;;;20.92;59.48;99439.34;4463614;32;34727;-79
2023/06/26 01:25:17;;;;;;;;;;;;;;;21.07;58.69;99430.53;4460200;32;33777;-77
2023/06/26 01:27:48;;;;;;;;;;;;;;;21.01;59.00;99430.88;4460005;32;33840;-78
2023/06/26 01:30:17;;;;;;;;;;;;;;;21.01;58.89;99432.66;4466676;32;32753;-79
2023/06/26 01:32:46;;;;;;;;;;;;;;;20.69;60.15;99435.44;4460460;32;34635;-78
2023/06/26 01:35:19;;;;;;;;;;;;;;;20.74;59.66;99433.38;4460406;32;33840;-77
2023/06/26 01:37:48;;;;;;;;;;;;;;;20.78;59.28;99426.12;4462668;32;34550;-79
2023/06/26 01:40:17;;;;;;;;;;;;;;;20.85;59.13;99430.09;4476000;32;33709;-78
2023/06/26 01:42:48;;;;;;;;;;;;;;;20.83;58.70;99432.00;4481383;32;35048;-79
2023/06/26 01:45:19;;;;;;;;;;;;;;;20.65;59.41;99432.13;4475972;32;33760;-78
2023/06/26 01:47:49;;;;;;;;;;;;;;;20.29;60.26;99432.44;4475968;32;33481;-80
2023/06/26 01:50:18;;;;;;;;;;;;;;;20.35;59.76;99423.38;4475782;32;32596;-79
2023/06/26 01:52:50;;;;;;;;;;;;;;;20.38;59.90;99433.72;4481529;32;33980;-78
2023/06/26 01:55:21;;;;;;;;;;;;;;;20.05;60.63;99429.44;4463825;32;34996;-77
2023/06/26 01:57:51;;;;;;;;;;;;;;;20.02;60.77;99432.25;4474773;32;34197;-78
2023/06/26 02:00:20;;;;;;;;;;;;;;;20.05;61.18;99432.06;4478236;32;32415;-79
2023/06/26 02:02:50;;;;;;;;;;;;;;;20.15;61.38;99429.75;4477919;32;34023;-78
2023/06/26 02:05:18;;;;;;;;;;;;;;;20.25;60.87;99431.78;4483052;32;33716;-79
2023/06/26 02:07:47;;;;;;;;;;;;;;;20.24;61.10;99435.34;4466360;32;33848;-80
2023/06/26 02:10:16;;;;;;;;;;;;;;;20.28;60.88;99429.91;4462008;32;33690;-80
2023/06/26 02:12:44;;;;;;;;;;;;;;;20.32;60.48;99432.28;4463686;32;33928;-80
2023/06/26 02:15:15;;;;;;;;;;;;;;;20.51;60.03;99428.56;4468071;32;33612;-79
2023/06/26 02:17:48;;;;;;;;;;;;;;;20.53;59.48;99427.53;4471072;32;35763;-79
2023/06/26 02:20:17;;;;;;;;;;;;;;;20.36;59.79;99432.94;4478131;32;34322;-78
2023/06/26 02:22:46;;;;;;;;;;;;;;;20.43;59.37;99429.87;4465594;32;33661;-78
2023/06/26 02:25:14;;;;;;;;;;;;;;;20.25;60.04;99429.16;4461745;32;34190;-79
2023/06/26 02:27:43;;;;;;;;;;;;;;;20.35;59.40;99433.91;4467453;32;33847;-80
2023/06/26 02:30:14;;;;;;;;;;;;;;;20.27;59.68;99434.31;4467974;32;33272;-79
2023/06/26 02:32:43;;;;;;;;;;;;;;;20.29;59.84;99442.97;4468046;32;33376;-80
2023/06/26 02:35:12;;;;;;;;;;;;;;;20.03;60.56;99434.78;4476662;32;34177;-80
2023/06/26 02:37:42;;;;;;;;;;;;;;;20.23;60.02;99446.81;4467677;32;33449;-77
2023/06/26 02:40:11;;;;;;;;;;;;;;;20.40;59.32;99451.13;4461063;32;32803;-79
2023/06/26 02:42:40;;;;;;;;;;;;;;;20.07;60.08;99448.62;4462337;32;33417;-79
2023/06/26 02:45:10;;;;;;;;;;;;;;;20.32;59.27;99450.72;4462153;32;33990;-79
2023/06/26 02:47:40;;;;;;;;;;;;;;;20.54;58.59;99452.97;4467169;32;34381;-78
2023/06/26 02:50:09;;;;;;;;;;;;;;;20.33;59.31;99449.78;4483443;32;34080;-78
2023/06/26 02:52:39;;;;;;;;;;;;;;;20.53;58.51;99455.69;4477695;32;33987;-78
2023/06/26 02:55:08;;;;;;;;;;;;;;;20.35;59.31;99450.56;4477809;32;34390;-79
2023/06/26 02:57:37;;;;;;;;;;;;;;;20.24;59.88;99456.41;4477891;32;33973;-78
2023/06/26 03:00:08;;;;;;;;;;;;;;;20.29;59.79;99444.78;4483368;32;33083;-78
2023/06/26 03:02:40;;;;;;;;;;;;;;;20.11;60.13;99447.53;4477677;32;33855;-77
2023/06/26 03:05:09;;;;;;;;;;;;;;;20.17;59.92;99444.53;4469877;32;34759;-78
2023/06/26 03:07:43;;;;;;;;;;;;;;;20.22;59.84;99452.16;4462383;32;34002;-77
2023/06/26 03:10:12;;;;;;;;;;;;;;;20.31;59.79;99449.03;4476807;32;33640;-79
2023/06/26 03:12:43;;;;;;;;;;;;;;;20.30;59.88;99447.34;4481350;32;34818;-79
2023/06/26 03:15:12;;;;;;;;;;;;;;;20.31;59.92;99456.94;4478425;32;34700;-78
2023/06/26 03:17:42;;;;;;;;;;;;;;;20.39;59.63;99460.00;4477426;32;34235;-80
2023/06/26 03:20:11;;;;;;;;;;;;;;;20.16;60.01;99453.38;4477460;32;32596;-80
2023/06/26 03:22:40;;;;;;;;;;;;;;;20.37;59.42;99461.84;4483019;32;33701;-79
2023/06/26 03:25:09;;;;;;;;;;;;;;;20.40;59.32;99466.94;4477465;32;33594;-80
2023/06/26 03:27:37;;;;;;;;;;;;;;;20.42;59.59;99461.59;4480129;32;34240;-79
2023/06/26 03:30:07;;;;;;;;;;;;;;;20.45;59.60;99475.44;4477166;31;33529;-78
2023/06/26 03:32:36;;;;;;;;;;;;;;;20.38;59.64;99465.34;4480719;32;33725;-80
2023/06/26 03:35:06;;;;;;;;;;;;;;;20.46;59.62;99469.25;4468538;32;33390;-79
2023/06/26 03:37:35;;;;;;;;;;;;;;;20.40;59.61;99464.31;4477418;32;34275;-78
2023/06/26 03:40:07;;;;;;;;;;;;;;;20.39;59.62;99459.13;4477129;32;34698;-78
2023/06/26 03:42:35;;;;;;;;;;;;;;;20.32;60.20;99461.28;4477346;32;34643;-78
2023/06/26 03:45:04;;;;;;;;;;;;;;;20.15;60.62;99458.72;4483016;32;34457;-80
2023/06/26 03:47:33;;;;;;;;;;;;;;;20.38;59.98;99460.91;4477596;32;33845;-80
2023/06/26 03:50:03;;;;;;;;;;;;;;;20.37;60.27;99463.62;4477469;32;33581;-79
2023/06/26 03:52:33;;;;;;;;;;;;;;;20.49;60.12;99464.69;4477611;32;33928;-78
2023/06/26 03:55:03;;;;;;;;;;;;;;;20.45;59.80;99467.53;4482265;32;33268;-80
2023/06/26 03:57:35;;;;;;;;;;;;;;;20.57;60.03;99471.28;4482518;32;35098;-78
2023/06/26 04:00:08;;;;;;;;;;;;;;;20.59;59.90;99472.03;4477332;32;34334;-80
2023/06/26 04:02:41;;;;;;;;;;;;;;;20.70;59.92;99476.66;4477365;32;33588;-79
2023/06/26 04:05:11;;;;;;;;;;;;;;;20.81;59.66;99478.69;4469297;32;33920;-77
2023/06/26 04:07:41;;;;;;;;;;;;;;;20.77;59.63;99479.81;4472747;32;34639;-80
2023/06/26 04:10:10;;;;;;;;;;;;;;;20.71;58.87;99480.16;4477286;32;32741;-79
2023/06/26 04:12:39;;;;;;;;;;;;;;;21.05;58.20;99486.94;4475069;32;33863;-79
2023/06/26 04:15:08;;;;;;;;;;;;;;;21.05;58.06;99484.31;4477263;32;34312;-80
2023/06/26 04:17:37;;;;;;;;;;;;;;;20.94;58.69;99479.66;4473034;32;34444;-81
2023/06/26 04:20:08;;;;;;;;;;;;;;;21.19;57.60;99478.19;4466762;32;33270;-79
2023/06/26 04:22:36;;;;;;;;;;;;;;;21.25;57.66;99477.81;4460125;32;34781;-79
2023/06/26 04:25:06;;;;;;;;;;;;;;;21.41;56.95;99477.78;4461440;32;34385;-78
2023/06/26 04:27:35;;;;;;;;;;;;;;;21.39;57.68;99477.88;4461354;32;34250;-80
2023/06/26 04:30:07;;;;;;;;;;;;;;;22.04;54.25;99476.47;4474640;32;33343;-79
2023/06/26 04:32:36;;;;;;;;;;;;;;;22.74;53.00;99473.69;4476837;32;34416;-80
2023/06/26 04:35:05;;;;;;;;;;;;;;;23.26;51.66;99472.78;4477103;32;34087;-80
2023/06/26 04:37:34;;;;;;;;;;;;;;;23.82;50.57;99473.31;4476922;32;35252;-78
2023/06/26 04:40:03;;;;;;;;;;;;;;;24.54;47.97;99476.97;4482574;32;34266;-80
2023/06/26 04:42:36;;;;;;;;;;;;;;;25.07;46.53;99486.16;4481022;32;34569;-79
2023/06/26 04:45:05;;;;;;;;;;;;;;;25.55;44.83;99479.84;4476305;32;35191;-79
2023/06/26 04:47:34;;;;;;;;;;;;;;;25.89;43.40;99486.00;4476550;32;34354;-79
2023/06/26 04:50:02;;;;;;;;;;;;;;;26.22;42.80;99478.13;4476496;32;33553;-79
2023/06/26 04:52:31;;;;;;;;;;;;;;;26.37;42.32;99483.00;4480838;32;33954;-81
2023/06/26 04:55:00;;;;;;;;;;;;;;;26.69;42.35;99486.66;4460982;32;33768;-80
2023/06/26 04:57:29;;;;;;;;;;;;;;;26.92;41.23;99485.56;4460670;32;34507;-81
2023/06/26 04:59:59;;;;;;;;;;;;;;;27.25;40.33;99483.69;4470257;32;33649;-80
2023/06/26 05:02:27;;;;;;;;;;;;;;;27.52;39.98;99477.81;4473473;32;34242;-81
2023/06/26 05:04:56;;;;;;;;;;;;;;;27.55;40.26;99479.38;4470010;32;33659;-79
2023/06/26 05:07:25;;;;;;;;;;;;;;;27.89;39.85;99484.41;4460809;32;34741;-80
2023/06/26 05:09:54;;;;;;;;;;;;;;;28.38;38.64;99485.34;4460808;32;33361;-80
2023/06/26 05:12:24;;;;;;;;;;;;;;;28.43;37.88;99481.25;4461120;32;33955;-81
2023/06/26 05:14:52;;;;;;;;;;;;;;;27.86;38.46;99481.03;4466605;32;34267;-79
2023/06/26 05:17:22;;;;;;;;;;;;;;;27.86;39.20;99485.53;4460784;32;34507;-80
2023/06/26 05:19:51;;;;;;;;;;;;;;;27.81;39.83;99480.59;4472132;32;32512;-81
2023/06/26 05:22:20;;;;;;;;;;;;;;;27.92;39.91;99478.81;4459627;32;34340;-81
2023/06/26 05:24:48;;;;;;;;;;;;;;;27.80;39.64;99478.03;4468749;32;34539;-79
2023/06/26 05:27:21;;;;;;;;;;;;;;;27.68;40.68;99477.28;4459852;32;34666;-79
2023/06/26 05:29:51;;;;;;;;;;;;;;;27.47;41.19;99476.50;4460026;32;33857;-80
2023/06/26 05:32:19;;;;;;;;;;;;;;;27.66;40.40;99477.41;4471597;32;34227;-79
2023/06/26 05:34:50;;;;;;;;;;;;;;;27.40;40.82;99484.19;4479873;32;34674;-80
2023/06/26 05:37:20;;;;;;;;;;;;;;;27.20;41.56;99484.09;4483335;32;33275;-79
2023/06/26 05:39:49;;;;;;;;;;;;;;;27.17;41.65;99488.81;4466783;32;33953;-80
2023/06/26 05:42:18;;;;;;;;;;;;;;;27.04;42.57;99489.03;4463289;32;34188;-79
2023/06/26 05:44:47;;;;;;;;;;;;;;;26.65;43.08;99487.88;4465697;32;35014;-80
2023/06/26 05:47:16;;;;;;;;;;;;;;;26.41;43.54;99488.94;4469323;32;34195;-78
2023/06/26 05:49:45;;;;;;;;;;;;;;;26.28;44.58;99481.09;4478095;32;33589;-80
2023/06/26 05:52:16;;;;;;;;;;;;;;;26.09;43.82;99491.53;4477737;32;34378;-79
2023/06/26 05:54:45;;;;;;;;;;;;;;;26.39;43.36;99488.19;4478043;32;33221;-80
2023/06/26 05:57:14;;;;;;;;;;;;;;;26.37;43.65;99482.16;4470176;32;35238;-79
2023/06/26 05:59:43;;;;;;;;;;;;;;;26.45;42.38;99486.84;4467091;32;33437;-80
2023/06/26 06:02:12;;;;;;;;;;;;;;;26.26;42.72;99483.03;4462110;32;33525;-79
2023/06/26 06:04:41;;;;;;;;;;;;;;;26.26;43.79;99483.03;4462287;32;34348;-80
2023/06/26 06:07:09;;;;;;;;;;;;;;;25.94;45.28;99481.16;4477425;32;33828;-78
2023/06/26 06:09:40;;;;;;;;;;;;;;;25.68;44.21;99485.88;4478836;32;34368;-79
2023/06/26 06:12:10;;;;;;;;;;;;;;;25.58;45.21;99487.56;4470798;32;33888;-79
2023/06/26 06:14:38;;;;;;;;;;;;;;;25.99;44.34;99480.81;4477666;32;34571;-80
2023/06/26 06:17:07;;;;;;;;;;;;;;;25.79;44.25;99485.03;4477792;32;34172;-79
2023/06/26 06:19:36;;;;;;;;;;;;;;;25.76;45.67;99491.44;4483090;32;33701;-79
2023/06/26 06:22:04;;;;;;;;;;;;;;;25.42;45.22;99495.03;4465095;32;33872;-79
2023/06/26 06:24:33;;;;;;;;;;;;;;;25.80;43.65;99485.88;4463592;32;34220;-80
2023/06/26 06:27:05;;;;;;;;;;;;;;;25.79;45.12;99485.03;4461597;32;33748;-80
2023/06/26 06:29:33;;;;;;;;;;;;;;;25.90;45.30;99487.72;4467429;32;34277;-79
2023/06/26 06:32:02;;;;;;;;;;;;;;;25.82;45.95;99494.56;4474737;32;34341;-79
2023/06/26 06:34:30;;;;;;;;;;;;;;;25.74;45.35;99484.56;4473273;32;34130;-80
2023/06/26 06:36:59;;;;;;;;;;;;;;;25.70;45.17;99491.91;4477780;32;34339;-80
2023/06/26 06:39:28;;;;;;;;;;;;;;;25.99;43.61;99486.12;4470277;32;33233;-79
2023/06/26 06:41:57;;;;;;;;;;;;;;;25.94;44.02;99491.81;4479868;32;35279;-80
2023/06/26 06:44:27;;;;;;;;;;;;;;;25.88;43.76;99497.63;4472189;32;34219;-78
2023/06/26 06:46:56;;;;;;;;;;;;;;;25.43;45.07;99497.59;4476509;32;36603;-79
2023/06/26 06:49:26;;;;;;;;;;;;;;;25.45;45.70;99493.00;4477751;32;34367;-79
2023/06/26 06:51:54;;;;;;;;;;;;;;;25.86;44.08;99486.28;4482973;32;34746;-80
2023/06/26 06:54:26;;;;;;;;;;;;;;;25.77;44.88;99493.13;4482185;32;34524;-80
2023/06/26 06:56:57;;;;;;;;;;;;;;;25.96;44.27;99494.34;4470270;32;34167;-79
2023/06/26 06:59:27;;;;;;;;;;;;;;;26.07;44.00;99486.38;4466881;32;33717;-79
2023/06/26 07:01:55;;;;;;;;;;;;;;;25.94;43.27;99483.81;4476765;32;33864;-79
2023/06/26 07:04:24;;;;;;;;;;;;;;;25.99;43.18;99486.12;4476158;32;34174;-79
2023/06/26 07:06:53;;;;;;;;;;;;;;;25.91;43.98;99486.75;4461551;32;34151;-81
2023/06/26 07:09:22;;;;;;;;;;;;;;;26.45;43.23;99481.53;4464288;32;33582;-79
2023/06/26 07:11:51;;;;;;;;;;;;;;;26.28;43.02;99489.06;4461604;32;33880;-80
2023/06/26 07:14:20;;;;;;;;;;;;;;;26.60;41.67;99485.59;4467576;32;34314;-81
2023/06/26 07:16:50;;;;;;;;;;;;;;;26.75;41.28;99479.00;4461414;32;34795;-78
2023/06/26 07:19:19;;;;;;;;;;;;;;;27.01;40.15;99489.25;4464568;32;32521;-79
2023/06/26 07:21:48;;;;;;;;;;;;;;;26.85;40.47;99484.41;4477495;32;33784;-80
2023/06/26 07:24:16;;;;;;;;;;;;;;;26.70;41.67;99483.88;4472463;32;34071;-80
2023/06/26 07:26:45;;;;;;;;;;;;;;;27.15;41.32;99482.75;4481344;32;34281;-79
2023/06/26 07:29:17;;;;;;;;;;;;;;;26.76;41.78;99480.69;4476912;32;33189;-79
2023/06/26 07:31:46;;;;;;;;;;;;;;;26.97;41.59;99479.88;4476830;32;34191;-79
2023/06/26 07:34:15;;;;;;;;;;;;;;;26.70;41.91;99480.34;4478114;32;34166;-78
2023/06/26 07:36:44;;;;;;;;;;;;;;;26.80;41.38;99484.78;4482586;32;34132;-79
2023/06/26 07:39:13;;;;;;;;;;;;;;;27.37;39.90;99484.47;4477515;32;34166;-80
2023/06/26 07:41:50;;;;;;;;;;;;;;;27.38;39.80;99480.84;4464061;32;33932;-79
2023/06/26 07:44:19;;;;;;;;;;;;;;;27.27;40.25;99495.06;4461364;32;34834;-79
2023/06/26 07:46:50;;;;;;;;;;;;;;;27.58;39.43;99482.59;4463636;32;33311;-79
2023/06/26 07:49:20;;;;;;;;;;;;;;;27.57;39.18;99480.06;4470855;32;34056;-80
2023/06/26 07:51:49;;;;;;;;;;;;;;;27.56;39.53;99479.22;4475181;32;36134;-79
2023/06/26 07:54:17;;;;;;;;;;;;;;;27.07;41.56;99494.06;4470936;32;34904;-80
2023/06/26 07:56:53;;;;;;;;;;;;;;;27.07;41.29;99490.56;4455676;32;32419;-78
2023/06/26 07:59:22;;;;;;;;;;;;;;;27.43;40.69;99494.59;4481392;32;33049;-79
2023/06/26 08:01:52;;;;;;;;;;;;;;;26.83;40.91;99488.16;4466692;32;33513;-81
2023/06/26 08:04:23;;;;;;;;;;;;;;;27.15;41.20;99490.75;4467733;32;34244;-79
2023/06/26 08:06:53;;;;;;;;;;;;;;;27.20;40.98;99494.72;4467688;32;34462;-81
2023/06/26 08:09:23;;;;;;;;;;;;;;;27.70;40.20;99485.16;4468238;32;32612;-79
2023/06/26 08:11:53;;;;;;;;;;;;;;;28.11;39.28;99488.69;4472486;32;34695;-80
2023/06/26 08:14:24;;;;;;;;;;;;;;;28.23;39.79;99485.75;4466016;32;34648;-80
2023/06/26 08:16:53;;;;;;;;;;;;;;;28.14;38.94;99488.41;4466959;32;35204;-80
2023/06/26 08:19:24;;;;;;;;;;;;;;;28.36;38.63;99487.31;4467302;32;32720;-78
2023/06/26 08:21:53;;;;;;;;;;;;;;;28.36;38.42;99488.13;4470339;32;34511;-81
2023/06/26 08:24:21;;;;;;;;;;;;;;;28.17;38.51;99493.44;4467376;32;34257;-80
2023/06/26 08:26:50;;;;;;;;;;;;;;;28.44;38.64;99496.31;4466080;32;34859;-79
2023/06/26 08:29:19;;;;;;;;;;;;;;;28.42;38.29;99495.59;4469044;32;33925;-78
2023/06/26 08:31:50;;;;;;;;;;;;;;;28.15;38.29;99493.59;4466100;32;34322;-80
2023/06/26 08:34:19;;;;;;;;;;;;;;;28.50;37.85;99492.25;4470877;32;35050;-79
2023/06/26 08:36:49;;;;;;;;;;;;;;;28.75;38.68;99490.00;4462371;32;35085;-81
2023/06/26 08:39:18;;;;;;;;;;;;;;;28.91;38.60;99490.28;4468967;32;34322;-81
2023/06/26 08:41:47;;;;;;;;;;;;;;;28.99;37.60;99490.37;4468466;32;33201;-80
2023/06/26 08:44:17;;;;;;;;;;;;;;;29.31;36.87;99487.41;4459230;32;33646;-79
2023/06/26 08:46:46;;;;;;;;;;;;;;;29.18;37.81;99484.19;4461696;32;34139;-81
2023/06/26 08:49:15;;;;;;;;;;;;;;;29.21;36.51;99494.59;4474990;32;33277;-78
2023/06/26 08:51:45;;;;;;;;;;;;;;;29.58;36.28;99491.13;4475046;32;34221;-79
2023/06/26 08:54:15;;;;;;;;;;;;;;;29.65;36.78;99486.00;4476219;32;33877;-79
2023/06/26 08:56:45;;;;;;;;;;;;;;;29.69;36.23;99482.91;4473987;32;33493;-79
2023/06/26 08:59:14;;;;;;;;;;;;;;;29.21;36.76;99485.75;4462640;32;33577;-79
2023/06/26 09:01:42;;;;;;;;;;;;;;;28.94;36.45;99482.81;4467863;32;33844;-79
2023/06/26 09:04:11;;;;;;;;;;;;;;;28.57;37.31;99485.38;4474582;32;34533;-78
2023/06/26 09:06:41;;;;;;;;;;;;;;;28.42;36.68;99490.25;4472720;32;34805;-78
2023/06/26 09:09:11;;;;;;;;;;;;;;;28.02;37.77;99485.84;4470149;32;33236;-79
2023/06/26 09:11:43;;;;;;;;;;;;;;;28.00;38.71;99486.97;4474555;32;33199;-79
2023/06/26 09:14:12;;;;;;;;;;;;;;;28.10;39.29;99487.81;4479844;32;33688;-80
2023/06/26 09:16:42;;;;;;;;;;;;;;;27.97;39.14;99482.75;4470097;32;35344;-78
2023/06/26 09:19:12;;;;;;;;;;;;;;;28.07;39.00;99480.09;4479062;32;32955;-78
2023/06/26 09:21:44;;;;;;;;;;;;;;;27.93;39.06;99478.66;4466819;32;34182;-80
2023/06/26 09:24:13;;;;;;;;;;;;;;;27.99;39.55;99475.47;4472253;32;34066;-79
2023/06/26 09:26:43;;;;;;;;;;;;;;;27.93;38.96;99475.16;4479681;32;35139;-80
2023/06/26 09:29:12;;;;;;;;;;;;;;;28.27;38.51;99484.50;4470793;32;33506;-80
2023/06/26 09:31:41;;;;;;;;;;;;;;;28.09;39.62;99484.31;4464553;32;33796;-80
2023/06/26 09:34:10;;;;;;;;;;;;;;;28.51;39.16;99480.59;4470250;32;33779;-79
2023/06/26 09:36:42;;;;;;;;;;;;;;;28.17;38.67;99482.78;4469212;32;34413;-79
2023/06/26 09:39:11;;;;;;;;;;;;;;;28.35;37.59;99488.28;4465879;32;33318;-78
2023/06/26 09:41:41;;;;;;;;;;;;;;;27.85;39.34;99481.16;4477848;32;33692;-80
2023/06/26 09:44:13;;;;;;;;;;;;;;;28.83;37.37;99482.97;4473053;32;34947;-77
2023/06/26 09:46:42;;;;;;;;;;;;;;;29.00;36.98;99489.41;4469694;32;34177;-80
2023/06/26 09:49:11;;;;;;;;;;;;;;;29.17;37.64;99479.03;4463188;32;33628;-79
2023/06/26 09:51:41;;;;;;;;;;;;;;;29.23;37.86;99473.91;4472941;32;33977;-80
2023/06/26 09:54:10;;;;;;;;;;;;;;;29.66;36.01;99469.84;4471731;32;33654;-78
2023/06/26 09:56:39;;;;;;;;;;;;;;;29.46;36.69;99470.91;4471762;32;33804;-78
2023/06/26 09:59:09;;;;;;;;;;;;;;;29.01;37.33;99466.22;4470571;32;34273;-82
2023/06/26 10:01:42;;;;;;;;;;;;;;;29.28;37.77;99468.97;4472399;32;32721;-78
2023/06/26 10:04:11;;;;;;;;;;;;;;;29.22;36.50;99469.56;4474899;32;36164;-78
2023/06/26 10:06:45;;;;;;;;;;;;;;;29.28;36.99;99466.31;4474000;32;33855;-78
2023/06/26 10:09:14;;;;;;;;;;;;;;;29.30;37.29;99466.16;4462678;32;33830;-78
2023/06/26 10:11:48;;;;;;;;;;;;;;;28.65;38.68;99466.00;4476450;32;32889;-78
2023/06/26 10:14:16;;;;;;;;;;;;;;;28.90;37.52;99464.56;4484039;32;33832;-78
2023/06/26 10:16:47;;;;;;;;;;;;;;;29.32;37.07;99462.38;4472042;32;34045;-78
2023/06/26 10:19:18;;;;;;;;;;;;;;;29.24;36.68;99456.91;4467652;32;33478;-78
2023/06/26 10:21:47;;;;;;;;;;;;;;;29.71;35.46;99466.75;4460639;32;33976;-78
2023/06/26 10:24:16;;;;;;;;;;;;;;;29.93;35.38;99449.44;4459784;32;34119;-78
2023/06/26 10:26:45;;;;;;;;;;;;;;;30.35;35.69;99443.56;4466890;32;34899;-78
2023/06/26 10:29:14;;;;;;;;;;;;;;;30.60;34.94;99447.28;4461257;32;34206;-80
2023/06/26 10:31:45;;;;;;;;;;;;;;;30.36;35.04;99451.41;4464059;32;34635;-78
2023/06/26 10:34:15;;;;;;;;;;;;;;;30.13;35.07;99448.34;4464746;31;34372;-78
2023/06/26 10:36:44;;;;;;;;;;;;;;;29.94;35.38;99449.31;4473223;32;36006;-79
2023/06/26 10:39:12;;;;;;;;;;;;;;;29.13;36.58;99455.25;4460882;32;33846;-78
2023/06/26 10:41:42;;;;;;;;;;;;;;;29.37;36.27;99443.22;4460486;31;34237;-79
2023/06/26 10:44:28;;;;;;;;;;;;;;;29.10;36.93;99454.72;4454611;32;34351;-77
2023/06/26 10:46:59;;;;;;;;;;;;;;;28.72;36.73;99456.44;4465675;32;34659;-79
2023/06/26 10:49:30;;;;;;;;;;;;;;;28.67;36.87;99458.69;4469909;31;34786;-79
2023/06/26 10:52:02;;;;;;;;;;;;;;;28.56;36.36;99450.81;4447986;32;33575;-79
2023/06/26 10:54:31;;;;;;;;;;;;;;;28.91;36.64;99448.38;4466615;32;34276;-78
2023/06/26 10:57:00;;;;;;;;;;;;;;;29.11;35.84;99451.03;4457719;32;34720;-80
2023/06/26 10:59:32;;;;;;;;;;;;;;;29.29;36.84;99457.31;4470584;32;33191;-79
2023/06/26 11:02:03;;;;;;;;;;;;;;;29.59;36.02;99451.84;4470705;32;34571;-78
2023/06/26 11:04:43;;;;;;;;;;;;;;;29.12;36.75;99444.72;4463787;32;35156;-79
2023/06/26 11:07:20;;;;;;;;;;;;;;;29.37;36.48;99451.25;4467540;32;35086;-79
2023/06/26 11:09:59;;;;;;;;;;;;;;;29.34;36.24;99447.03;4463684;32;32632;-78
2023/06/26 11:12:38;;;;;;;;;;;;;;;29.66;34.61;99453.81;4466446;32;33736;-77
2023/06/26 11:15:08;;;;;;;;;;;;;;;29.58;35.36;99448.34;4473592;32;32806;-78
2023/06/26 11:17:42;;;;;;;;;;;;;;;29.22;36.31;99447.38;4462391;32;32963;-78
2023/06/26 11:20:12;;;;;;;;;;;;;;;29.64;36.95;99447.72;4464790;32;34249;-79
2023/06/26 11:22:42;;;;;;;;;;;;;;;29.76;36.16;99451.91;4465832;32;34525;-80
2023/06/26 11:25:11;;;;;;;;;;;;;;;29.86;33.91;99434.97;4466835;32;34121;-79
2023/06/26 11:27:40;;;;;;;;;;;;;;;30.06;33.89;99433.88;4468995;32;33839;-79
2023/06/26 11:30:10;;;;;;;;;;;;;;;30.16;34.76;99437.31;4465237;32;33134;-80
2023/06/26 11:32:39;;;;;;;;;;;;;;;30.02;33.85;99439.69;4466823;32;33601;-79
2023/06/26 11:35:09;;;;;;;;;;;;;;;30.32;33.07;99423.28;4467608;32;33988;-79
2023/06/26 11:37:39;;;;;;;;;;;;;;;30.58;32.96;99430.53;4471213;32;34823;-80
2023/06/26 11:40:17;;;;;;;;;;;;;;;30.93;33.48;99426.09;4466282;32;33563;-79
2023/06/26 11:42:46;;;;;;;;;;;;;;;31.38;33.21;99422.34;4470666;32;33788;-78
2023/06/26 11:45:15;;;;;;;;;;;;;;;31.59;31.84;99427.34;4463473;32;34705;-80
2023/06/26 11:47:44;;;;;;;;;;;;;;;31.24;32.84;99421.09;4470749;32;33911;-79
2023/06/26 11:50:15;;;;;;;;;;;;;;;31.46;32.08;99431.31;4471478;32;33469;-79
2023/06/26 11:52:45;;;;;;;;;;;;;;;31.46;31.40;99423.25;4465634;32;33683;-79
2023/06/26 11:55:14;;;;;;;;;;;;;;;31.57;30.81;99421.28;4466892;32;33741;-79
2023/06/26 11:57:42;;;;;;;;;;;;;;;31.36;32.08;99425.19;4468211;32;33764;-80
2023/06/26 12:00:12;;;;;;;;;;;;;;;31.31;31.60;99419.47;4470387;32;34558;-80
2023/06/26 12:02:41;;;;;;;;;;;;;;;31.26;31.06;99417.25;4465351;32;33679;-80
2023/06/26 12:05:10;;;;;;;;;;;;;;;31.65;31.74;99426.66;4465921;32;34017;-79
2023/06/26 12:07:39;;;;;;;;;;;;;;;31.22;30.73;99420.44;4466880;32;33920;-79
2023/06/26 12:10:10;;;;;;;;;;;;;;;31.59;31.18;99419.28;4467797;32;33531;-79
2023/06/26 12:12:39;;;;;;;;;;;;;;;31.78;29.47;99412.81;4465767;32;33826;-78
2023/06/26 12:15:08;;;;;;;;;;;;;;;31.60;30.28;99415.59;4464655;32;33511;-80
2023/06/26 12:17:38;;;;;;;;;;;;;;;31.48;30.26;99422.25;4466860;32;35060;-80
2023/06/26 12:20:17;;;;;;;;;;;;;;;31.81;31.05;99409.81;4464127;32;34014;-79
2023/06/26 12:22:47;;;;;;;;;;;;;;;32.05;29.79;99420.59;4472470;32;33826;-79
2023/06/26 12:25:18;;;;;;;;;;;;;;;31.89;30.29;99413.34;4465435;32;34218;-78
2023/06/26 12:27:47;;;;;;;;;;;;;;;31.66;30.67;99404.22;4467811;32;34850;-79
2023/06/26 12:30:34;;;;;;;;;;;;;;;32.08;29.22;99408.69;4466549;32;33059;-80
2023/06/26 12:33:03;;;;;;;;;;;;;;;31.71;30.34;99403.75;4465754;32;33715;-80
2023/06/26 12:35:34;;;;;;;;;;;;;;;32.10;29.84;99410.22;4471118;32;34732;-78
2023/06/26 12:38:02;;;;;;;;;;;;;;;31.99;30.36;99407.00;4465239;32;34266;-79
2023/06/26 12:40:33;;;;;;;;;;;;;;;31.77;29.44;99411.94;4464118;32;32312;-78
2023/06/26 12:43:03;;;;;;;;;;;;;;;31.77;30.16;99411.94;4463663;32;33742;-79
2023/06/26 12:45:38;;;;;;;;;;;;;;;32.19;30.68;99411.06;4471412;32;34248;-80
2023/06/26 12:48:11;;;;;;;;;;;;;;;32.50;28.98;99411.28;4470901;32;33930;-79
2023/06/26 12:50:44;;;;;;;;;;;;;;;32.64;29.84;99407.06;4464999;32;33177;-78
2023/06/26 12:53:13;;;;;;;;;;;;;;;32.86;27.77;99408.22;4464942;32;33670;-79
2023/06/26 12:55:43;;;;;;;;;;;;;;;32.70;28.49;99408.25;4464721;32;34374;-79
2023/06/26 12:58:12;;;;;;;;;;;;;;;33.28;28.50;99401.75;4467949;32;34523;-79
2023/06/26 13:00:41;;;;;;;;;;;;;;;33.08;29.14;99408.53;4465133;32;33194;-81